Time;durP1;ratioP1;P1;durP2;ratioP2;P2;SDS_P1;SDS_P2;PMS_P1;PMS_P2;Temp;Humidity;BMP_temperature;BMP_pressure;BME280_temperature;BME280_humidity;BME280_pressure;Samples;Min_cycle;Max_cycle;Signal;HPM_P1;HPM_P2
2021/04/26 00:02:06;;;;;;;4.30;1.75;;;;;;;;;;5035567;28;20354;-91
2021/04/26 00:04:31;;;;;;;2.65;1.80;;;;;;;;;;5019175;28;20523;-91
2021/04/26 00:06:57;;;;;;;4.03;1.50;;;;;;;;;;5035321;28;20037;-90
2021/04/26 00:09:22;;;;;;;3.85;1.35;;;;;;;;;;5035336;28;20029;-91
2021/04/26 00:11:47;;;;;;;7.60;1.50;;;;;;;;;;5034238;28;20124;-90
2021/04/26 00:14:13;;;;;;;2.63;1.73;;;;;;;;;;5035119;28;20099;-90
2021/04/26 00:16:38;;;;;;;3.20;1.52;;;;;;;;;;5035313;28;20469;-90
2021/04/26 00:19:04;;;;;;;5.95;1.52;;;;;;;;;;5035216;28;20503;-91
2021/04/26 00:21:30;;;;;;;1.88;1.27;;;;;;;;;;5035381;28;20095;-90
2021/04/26 00:23:56;;;;;;;1.98;1.25;;;;;;;;;;5034972;28;20052;-90
2021/04/26 00:26:21;;;;;;;1.83;1.48;;;;;;;;;;5034562;28;20033;-90
2021/04/26 00:28:46;;;;;;;1.75;1.30;;;;;;;;;;5018073;28;20033;-90
2021/04/26 00:31:12;;;;;;;2.63;1.48;;;;;;;;;;5051620;28;20099;-90
2021/04/26 00:33:37;;;;;;;3.20;1.60;;;;;;;;;;5018402;28;20038;-90
2021/04/26 00:36:03;;;;;;;1.63;1.20;;;;;;;;;;5034596;28;20072;-90
2021/04/26 00:38:28;;;;;;;3.30;1.88;;;;;;;;;;5017878;28;20038;-89
2021/04/26 00:40:53;;;;;;;8.52;2.75;;;;;;;;;;5034176;28;20079;-90
2021/04/26 00:43:19;;;;;;;6.55;1.50;;;;;;;;;;5034162;28;20034;-90
2021/04/26 00:45:44;;;;;;;2.83;1.80;;;;;;;;;;5034407;28;20094;-90
2021/04/26 00:48:10;;;;;;;2.53;1.58;;;;;;;;;;5034073;28;20481;-91
2021/04/26 00:50:35;;;;;;;3.42;1.50;;;;;;;;;;5017515;28;20026;-91
2021/04/26 00:53:03;;;;;;;2.40;1.40;;;;;;;;;;5017954;28;20052;-91
2021/04/26 00:55:32;;;;;;;2.28;1.48;;;;;;;;;;5017792;28;20040;-90
2021/04/26 00:57:58;;;;;;;9.40;2.80;;;;;;;;;;5033933;28;20034;-91
2021/04/26 01:00:26;;;;;;;1.85;1.50;;;;;;;;;;5018145;28;20037;-90
2021/04/26 01:02:52;;;;;;;2.70;1.40;;;;;;;;;;5033417;28;20029;-90
2021/04/26 01:05:21;;;;;;;3.08;1.67;;;;;;;;;;5033988;28;20030;-89
2021/04/26 01:07:47;;;;;;;4.60;1.42;;;;;;;;;;5034315;28;20481;-91
2021/04/26 01:10:19;;;;;;;4.20;1.52;;;;;;;;;;5034216;28;20033;-91
2021/04/26 01:13:06;;;;;;;1.52;1.17;;;;;;;;;;5017599;28;20120;-92
2021/04/26 01:15:39;;;;;;;4.75;2.60;;;;;;;;;;5017647;28;20484;-92
2021/04/26 01:18:10;;;;;;;1.52;1.35;;;;;;;;;;5034035;28;20382;-91
2021/04/26 01:20:57;;;;;;;2.78;1.30;;;;;;;;;;5033901;28;20033;-92
2021/04/26 01:23:53;;;;;;;2.03;1.52;;;;;;;;;;5034017;28;20044;-92
2021/04/26 01:26:32;;;;;;;5.47;1.80;;;;;;;;;;5050234;28;20037;-92
2021/04/26 01:29:24;;;;;;;4.68;1.30;;;;;;;;;;5017500;28;20496;-91
2021/04/26 01:31:55;;;;;;;3.92;1.20;;;;;;;;;;5034967;28;20038;-92
2021/04/26 01:34:26;;;;;;;2.25;1.60;;;;;;;;;;5033671;28;20128;-92
2021/04/26 01:37:03;;;;;;;5.03;1.38;;;;;;;;;;5034773;28;20021;-92
2021/04/26 01:39:30;;;;;;;1.90;1.20;;;;;;;;;;5032665;28;20061;-92
2021/04/26 01:41:57;;;;;;;2.80;1.45;;;;;;;;;;5033555;28;20108;-91
2021/04/26 01:44:23;;;;;;;2.38;1.20;;;;;;;;;;5033335;28;20041;-92
2021/04/26 01:46:50;;;;;;;2.67;1.35;;;;;;;;;;5033298;28;20060;-91
2021/04/26 01:49:18;;;;;;;4.18;1.40;;;;;;;;;;5016836;28;20084;-91
2021/04/26 01:51:46;;;;;;;3.47;1.33;;;;;;;;;;5033476;28;20370;-91
2021/04/26 01:54:12;;;;;;;2.28;1.42;;;;;;;;;;5016648;28;20030;-92
2021/04/26 01:56:38;;;;;;;2.75;1.42;;;;;;;;;;5032842;28;20091;-92
2021/04/26 01:59:08;;;;;;;3.17;1.45;;;;;;;;;;5033267;28;20030;-92
2021/04/26 02:01:33;;;;;;;3.08;2.08;;;;;;;;;;5033055;28;20041;-91
2021/04/26 02:04:05;;;;;;;5.30;1.90;;;;;;;;;;5033234;28;20116;-91
2021/04/26 02:06:41;;;;;;;1.98;1.65;;;;;;;;;;5033160;28;20033;-91
2021/04/26 02:09:42;;;;;;;7.30;1.90;;;;;;;;;;5024643;28;20030;-91
2021/04/26 02:12:13;;;;;;;4.50;1.70;;;;;;;;;;5029594;28;20034;-92
2021/04/26 02:14:44;;;;;;;4.93;1.92;;;;;;;;;;5013349;28;20034;-92
2021/04/26 02:17:12;;;;;;;2.67;1.55;;;;;;;;;;5013123;28;20048;-91
2021/04/26 02:19:39;;;;;;;8.07;1.75;;;;;;;;;;5013184;28;20034;-92
2021/04/26 02:22:05;;;;;;;4.03;1.70;;;;;;;;;;5013044;28;20029;-91
2021/04/26 02:24:36;;;;;;;4.70;1.70;;;;;;;;;;5029115;28;20164;-92
2021/04/26 02:27:03;;;;;;;6.97;1.48;;;;;;;;;;5012563;28;20120;-92
2021/04/26 02:29:28;;;;;;;6.57;2.22;;;;;;;;;;5029390;28;20030;-91
2021/04/26 02:31:59;;;;;;;5.68;1.95;;;;;;;;;;4996756;28;20034;-91
2021/04/26 02:34:34;;;;;;;5.60;1.52;;;;;;;;;;5029562;28;20061;-91
2021/04/26 02:37:08;;;;;;;2.72;1.63;;;;;;;;;;5011973;28;20060;-92
2021/04/26 02:39:35;;;;;;;2.83;1.45;;;;;;;;;;5012961;28;20037;-92
2021/04/26 02:42:02;;;;;;;5.40;1.75;;;;;;;;;;5028595;28;20030;-91
2021/04/26 02:44:31;;;;;;;2.78;1.70;;;;;;;;;;5032455;28;20493;-91
2021/04/26 02:47:09;;;;;;;2.70;1.80;;;;;;;;;;5016434;28;20033;-92
2021/04/26 02:49:47;;;;;;;5.20;1.83;;;;;;;;;;5033999;28;20060;-92
2021/04/26 02:52:15;;;;;;;7.50;1.70;;;;;;;;;;5032314;28;20033;-92
2021/04/26 02:54:43;;;;;;;4.88;1.88;;;;;;;;;;5015994;28;20040;-91
2021/04/26 02:57:09;;;;;;;4.82;1.77;;;;;;;;;;5015717;28;20036;-91
2021/04/26 02:59:37;;;;;;;4.38;1.73;;;;;;;;;;5031992;28;20507;-92
2021/04/26 03:02:04;;;;;;;3.60;1.90;;;;;;;;;;5015860;28;20037;-92
2021/04/26 03:04:49;;;;;;;2.55;1.58;;;;;;;;;;5032671;28;20033;-93
2021/04/26 03:07:16;;;;;;;4.07;1.67;;;;;;;;;;5032598;28;20544;-93
2021/04/26 03:09:48;;;;;;;2.78;1.90;;;;;;;;;;5017110;28;20040;-93
2021/04/26 03:12:14;;;;;;;4.45;2.00;;;;;;;;;;5032377;28;20175;-94
2021/04/26 03:14:44;;;;;;;2.85;1.65;;;;;;;;;;5016517;28;20029;-93
2021/04/26 03:17:11;;;;;;;2.17;1.83;;;;;;;;;;5032567;28;20033;-94
2021/04/26 03:19:40;;;;;;;4.22;1.83;;;;;;;;;;5032452;28;20025;-94
2021/04/26 03:22:07;;;;;;;2.20;1.63;;;;;;;;;;5032655;28;20025;-93
2021/04/26 03:24:34;;;;;;;2.63;1.70;;;;;;;;;;5015927;28;20057;-94
2021/04/26 03:27:02;;;;;;;2.88;1.80;;;;;;;;;;5035024;28;20025;-93
2021/04/26 03:29:29;;;;;;;3.35;1.70;;;;;;;;;;5036664;28;20030;-93
2021/04/26 03:31:56;;;;;;;3.65;1.80;;;;;;;;;;5036459;28;20041;-92
2021/04/26 03:34:26;;;;;;;3.10;1.60;;;;;;;;;;5020803;28;20025;-93
2021/04/26 03:36:51;;;;;;;7.60;2.10;;;;;;;;;;5020095;28;20025;-93
2021/04/26 03:39:17;;;;;;;5.68;2.03;;;;;;;;;;5019125;28;20030;-92
2021/04/26 03:41:45;;;;;;;4.10;1.70;;;;;;;;;;5036472;28;20048;-93
2021/04/26 03:44:14;;;;;;;4.18;2.05;;;;;;;;;;5036282;28;20489;-93
2021/04/26 03:47:05;;;;;;;4.32;2.00;;;;;;;;;;5036209;28;20069;-95
2021/04/26 03:49:48;;;;;;;2.92;1.98;;;;;;;;;;5036147;28;20133;-93
2021/04/26 03:52:16;;;;;;;5.05;2.15;;;;;;;;;;5036259;28;20045;-92
2021/04/26 03:55:10;;;;;;;6.55;2.72;;;;;;;;;;5016959;28;20045;-92
2021/04/26 03:57:36;;;;;;;8.55;3.55;;;;;;;;;;5019154;28;20029;-91
2021/04/26 04:00:04;;;;;;;7.03;2.85;;;;;;;;;;5035871;28;20397;-92
2021/04/26 04:02:35;;;;;;;4.22;2.65;;;;;;;;;;5036060;28;20042;-91
2021/04/26 04:05:01;;;;;;;4.57;2.42;;;;;;;;;;5035784;28;20030;-92
2021/04/26 04:07:49;;;;;;;7.07;2.45;;;;;;;;;;4998406;28;20121;-92
2021/04/26 04:10:47;;;;;;;8.07;2.17;;;;;;;;;;5035250;28;20128;-91
2021/04/26 04:13:31;;;;;;;5.97;1.90;;;;;;;;;;5035344;28;20552;-92
2021/04/26 04:15:57;;;;;;;9.07;1.70;;;;;;;;;;5035617;28;20037;-92
2021/04/26 04:18:24;;;;;;;10.10;2.60;;;;;;;;;;5035333;28;20033;-92
2021/04/26 04:20:50;;;;;;;4.32;1.83;;;;;;;;;;5035642;28;20083;-93
2021/04/26 04:23:16;;;;;;;3.58;2.00;;;;;;;;;;5035265;28;20497;-92
2021/04/26 04:25:42;;;;;;;3.55;2.28;;;;;;;;;;5035293;28;20056;-91
2021/04/26 04:28:07;;;;;;;3.53;2.03;;;;;;;;;;5035086;28;20065;-92
2021/04/26 04:30:34;;;;;;;7.55;2.13;;;;;;;;;;5034737;28;20071;-93
2021/04/26 04:33:20;;;;;;;4.22;2.00;;;;;;;;;;5035866;28;20052;-92
2021/04/26 04:36:00;;;;;;;7.85;2.13;;;;;;;;;;5035315;28;20041;-93
2021/04/26 04:38:44;;;;;;;3.88;1.77;;;;;;;;;;5034687;28;20051;-92
2021/04/26 04:41:29;;;;;;;2.67;1.80;;;;;;;;;;5035964;28;20432;-91
2021/04/26 04:43:56;;;;;;;9.75;2.42;;;;;;;;;;5033953;28;20389;-92
2021/04/26 04:46:21;;;;;;;6.55;1.80;;;;;;;;;;5034730;28;20120;-91
2021/04/26 04:48:51;;;;;;;10.57;1.85;;;;;;;;;;5034999;28;20037;-92
2021/04/26 04:51:21;;;;;;;4.47;1.88;;;;;;;;;;5018815;28;20095;-91
2021/04/26 04:53:54;;;;;;;2.63;1.85;;;;;;;;;;5019488;28;20076;-92
2021/04/26 04:56:20;;;;;;;4.72;2.08;;;;;;;;;;5018350;28;20026;-92
2021/04/26 04:58:46;;;;;;;6.30;1.98;;;;;;;;;;5034318;28;20029;-92
2021/04/26 05:01:12;;;;;;;10.73;2.42;;;;;;;;;;5018126;28;20067;-92
2021/04/26 05:03:56;;;;;;;6.35;1.95;;;;;;;;;;5034912;28;20084;-91
2021/04/26 05:06:39;;;;;;;4.30;2.20;;;;;;;;;;5035573;28;20559;-91
2021/04/26 05:09:23;;;;;;;2.67;1.55;;;;;;;;;;5034621;28;20103;-92
2021/04/26 05:12:21;;;;;;;;;;;;;;;;;;5035003;28;20053;-92
2021/04/26 05:15:06;;;;;;;3.55;1.67;;;;;;;;;;5033015;28;20000;-92
2021/04/26 05:17:31;;;;;;;4.53;1.60;;;;;;;;;;5033946;28;20079;-92
2021/04/26 05:19:57;;;;;;;5.18;1.85;;;;;;;;;;5033866;28;20447;-91
2021/04/26 05:22:23;;;;;;;3.90;1.83;;;;;;;;;;5033933;28;20041;-91
2021/04/26 05:24:58;;;;;;;14.45;2.60;;;;;;;;;;5033675;28;20069;-92
2021/04/26 05:27:23;;;;;;;5.60;1.95;;;;;;;;;;5033687;28;20492;-91
2021/04/26 05:29:48;;;;;;;4.05;2.10;;;;;;;;;;5033620;28;20043;-91
2021/04/26 05:32:14;;;;;;;7.18;2.25;;;;;;;;;;5033710;28;20037;-91
2021/04/26 05:34:42;;;;;;;11.70;3.25;;;;;;;;;;5050492;28;20374;-92
2021/04/26 05:37:07;;;;;;;8.20;2.55;;;;;;;;;;5033534;28;20044;-91
2021/04/26 05:39:33;;;;;;;5.95;2.35;;;;;;;;;;5033301;28;20128;-91
2021/04/26 05:42:00;;;;;;;11.13;2.83;;;;;;;;;;5049437;28;20517;-92
2021/04/26 05:44:25;;;;;;;4.72;2.40;;;;;;;;;;5032762;28;20064;-92
2021/04/26 05:47:03;;;;;;;6.63;2.47;;;;;;;;;;5032771;28;20037;-90
2021/04/26 05:49:28;;;;;;;5.70;2.60;;;;;;;;;;5031369;28;20075;-90
2021/04/26 05:51:54;;;;;;;6.22;2.28;;;;;;;;;;5032408;28;20041;-89
2021/04/26 05:54:19;;;;;;;4.57;2.55;;;;;;;;;;5032479;28;20041;-90
2021/04/26 05:56:45;;;;;;;4.43;2.55;;;;;;;;;;5032589;28;20087;-90
2021/04/26 05:59:10;;;;;;;5.85;2.55;;;;;;;;;;5016222;28;20041;-91
2021/04/26 06:01:35;;;;;;;4.00;2.40;;;;;;;;;;5034241;28;20047;-91
2021/04/26 06:04:00;;;;;;;4.45;2.70;;;;;;;;;;5049455;28;20032;-91
2021/04/26 06:06:27;;;;;;;3.78;2.60;;;;;;;;;;5049361;28;20432;-91
2021/04/26 06:08:52;;;;;;;4.93;2.70;;;;;;;;;;5033533;28;20081;-90
2021/04/26 06:11:18;;;;;;;27.13;3.75;;;;;;;;;;5032955;28;20060;-91
2021/04/26 06:13:43;;;;;;;3.88;2.45;;;;;;;;;;5049688;28;20561;-92
2021/04/26 06:16:08;;;;;;;4.20;2.38;;;;;;;;;;5016573;28;20045;-92
2021/04/26 06:18:34;;;;;;;4.35;2.50;;;;;;;;;;5032751;28;20033;-91
2021/04/26 06:20:59;;;;;;;7.82;2.80;;;;;;;;;;5032477;28;20065;-91
2021/04/26 06:23:24;;;;;;;6.30;2.30;;;;;;;;;;5032607;28;20071;-92
2021/04/26 06:25:50;;;;;;;5.55;2.50;;;;;;;;;;5032331;28;20136;-91
2021/04/26 06:28:16;;;;;;;3.53;2.35;;;;;;;;;;5032391;28;20129;-92
2021/04/26 06:30:44;;;;;;;5.55;2.60;;;;;;;;;;5032691;28;20037;-92
2021/04/26 06:33:15;;;;;;;11.90;3.10;;;;;;;;;;5032636;28;20059;-91
2021/04/26 06:35:50;;;;;;;5.53;3.13;;;;;;;;;;5016205;28;20048;-92
2021/04/26 06:38:17;;;;;;;7.80;3.10;;;;;;;;;;5032888;28;20149;-91
2021/04/26 06:40:43;;;;;;;6.55;2.85;;;;;;;;;;5032162;28;20515;-92
2021/04/26 06:43:08;;;;;;;11.68;3.03;;;;;;;;;;5015881;28;20017;-92
2021/04/26 06:45:38;;;;;;;8.93;2.88;;;;;;;;;;5032259;28;20025;-91
2021/04/26 06:48:03;;;;;;;6.45;2.80;;;;;;;;;;5032426;28;20030;-92
2021/04/26 06:50:29;;;;;;;9.05;2.70;;;;;;;;;;5015955;28;20034;-92
2021/04/26 06:52:55;;;;;;;5.97;2.60;;;;;;;;;;5032516;28;20033;-92
2021/04/26 06:55:22;;;;;;;4.40;2.80;;;;;;;;;;5015616;28;20042;-91
2021/04/26 06:57:47;;;;;;;6.05;2.38;;;;;;;;;;5015916;28;20033;-90
2021/04/26 07:00:14;;;;;;;8.13;2.47;;;;;;;;;;5031799;28;20048;-93
2021/04/26 07:02:40;;;;;;;4.30;2.30;;;;;;;;;;5032094;28;20099;-91
2021/04/26 07:05:07;;;;;;;4.28;2.17;;;;;;;;;;5032637;28;20477;-93
2021/04/26 07:07:33;;;;;;;5.57;2.17;;;;;;;;;;5032055;28;20033;-94
2021/04/26 07:09:58;;;;;;;7.47;2.40;;;;;;;;;;5016172;28;20030;-94
2021/04/26 07:12:23;;;;;;;8.30;2.10;;;;;;;;;;5016406;28;20179;-94
2021/04/26 07:14:49;;;;;;;4.45;2.22;;;;;;;;;;5031952;28;20440;-93
2021/04/26 07:17:14;;;;;;;4.72;2.10;;;;;;;;;;5032458;28;20121;-93
2021/04/26 07:19:39;;;;;;;15.07;1.88;;;;;;;;;;5032564;28;20128;-93
2021/04/26 07:22:05;;;;;;;4.70;1.90;;;;;;;;;;5032199;28;20069;-93
2021/04/26 07:24:30;;;;;;;10.20;2.30;;;;;;;;;;5032231;28;20133;-94
2021/04/26 07:26:56;;;;;;;7.78;1.60;;;;;;;;;;5032568;28;20396;-93
2021/04/26 07:29:22;;;;;;;9.82;2.00;;;;;;;;;;5032336;28;20029;-94
2021/04/26 07:31:47;;;;;;;3.03;1.70;;;;;;;;;;5032028;28;20457;-93
2021/04/26 07:34:13;;;;;;;11.95;2.08;;;;;;;;;;5048424;28;20065;-92
2021/04/26 07:36:38;;;;;;;4.63;1.85;;;;;;;;;;5015705;28;20096;-94
2021/04/26 07:39:04;;;;;;;4.50;1.83;;;;;;;;;;5031655;28;20111;-94
2021/04/26 07:41:30;;;;;;;6.18;1.70;;;;;;;;;;5030905;28;20025;-94
2021/04/26 07:43:55;;;;;;;2.83;1.98;;;;;;;;;;5031863;28;20045;-93
2021/04/26 07:46:21;;;;;;;3.58;1.73;;;;;;;;;;5014840;28;20405;-93
2021/04/26 07:48:46;;;;;;;3.75;1.60;;;;;;;;;;5032010;28;20508;-93
2021/04/26 07:51:12;;;;;;;6.30;1.70;;;;;;;;;;5031951;28;20473;-93
2021/04/26 07:53:37;;;;;;;2.50;1.50;;;;;;;;;;5031835;28;20374;-93
2021/04/26 07:56:03;;;;;;;1.17;0.98;;;;;;;;;;5031780;28;20040;-93
2021/04/26 07:58:28;;;;;;;2.67;1.23;;;;;;;;;;5015308;28;20033;-93
2021/04/26 08:00:54;;;;;;;3.83;1.73;;;;;;;;;;5015234;28;20041;-93
2021/04/26 08:03:19;;;;;;;4.50;1.30;;;;;;;;;;5032002;28;20038;-93
2021/04/26 08:05:45;;;;;;;3.42;1.55;;;;;;;;;;5031925;28;20132;-94
2021/04/26 08:08:11;;;;;;;1.50;1.05;;;;;;;;;;5030653;28;20069;-94
2021/04/26 08:10:36;;;;;;;2.47;1.15;;;;;;;;;;5031658;28;20033;-94
2021/04/26 08:13:02;;;;;;;7.57;1.30;;;;;;;;;;5034034;28;20037;-93
2021/04/26 08:15:28;;;;;;;1.60;1.00;;;;;;;;;;5035367;28;20064;-94
2021/04/26 08:17:53;;;;;;;5.30;1.08;;;;;;;;;;5051952;28;20076;-93
2021/04/26 08:20:19;;;;;;;1.70;0.80;;;;;;;;;;5035207;28;20030;-90
2021/04/26 08:22:44;;;;;;;2.92;1.05;;;;;;;;;;5034631;28;20037;-90
2021/04/26 08:25:10;;;;;;;5.00;1.08;;;;;;;;;;5051083;28;20144;-92
2021/04/26 08:27:36;;;;;;;1.65;0.90;;;;;;;;;;5034909;28;20030;-92
2021/04/26 08:30:04;;;;;;;3.10;1.05;;;;;;;;;;5034632;28;20060;-91
2021/04/26 08:32:29;;;;;;;4.30;1.10;;;;;;;;;;5035358;28;20037;-94
2021/04/26 08:34:55;;;;;;;2.42;1.25;;;;;;;;;;5035006;28;20103;-91
2021/04/26 08:37:20;;;;;;;3.17;1.40;;;;;;;;;;5034348;28;20397;-91
2021/04/26 08:39:46;;;;;;;3.72;1.17;;;;;;;;;;5030392;28;20030;-92
2021/04/26 08:42:15;;;;;;;6.03;1.08;;;;;;;;;;4998642;28;20457;-91
2021/04/26 08:44:41;;;;;;;2.40;1.00;;;;;;;;;;4998515;28;20044;-91
2021/04/26 08:47:06;;;;;;;3.40;1.50;;;;;;;;;;4998513;28;20026;-91
2021/04/26 08:49:31;;;;;;;3.60;1.30;;;;;;;;;;5032728;28;20123;-92
2021/04/26 08:51:57;;;;;;;3.63;1.13;;;;;;;;;;5018202;28;20038;-91
2021/04/26 08:54:22;;;;;;;1.13;0.82;;;;;;;;;;5017702;28;20053;-91
2021/04/26 08:56:47;;;;;;;2.25;0.93;;;;;;;;;;5034177;28;20469;-91
2021/04/26 08:59:13;;;;;;;2.58;1.00;;;;;;;;;;5034297;28;20042;-91
2021/04/26 09:01:39;;;;;;;2.40;1.15;;;;;;;;;;5034391;28;20062;-91
2021/04/26 09:04:10;;;;;;;2.17;1.00;;;;;;;;;;5033043;28;20374;-91
2021/04/26 09:06:58;;;;;;;1.60;1.08;;;;;;;;;;5017080;28;20044;-90
2021/04/26 09:09:41;;;;;;;3.85;1.23;;;;;;;;;;5033312;28;20069;-90
2021/04/26 09:12:35;;;;;;;2.00;1.00;;;;;;;;;;5015480;28;20046;-91
2021/04/26 09:15:04;;;;;;;1.75;1.00;;;;;;;;;;5031698;28;20069;-92
2021/04/26 09:17:40;;;;;;;3.90;1.48;;;;;;;;;;5017798;28;20124;-96
2021/04/26 09:20:14;;;;;;;2.65;1.10;;;;;;;;;;5018423;28;20103;-94
2021/04/26 09:22:50;;;;;;;1.30;0.80;;;;;;;;;;5018102;28;20037;-94
2021/04/26 09:25:31;;;;;;;2.78;1.30;;;;;;;;;;5016315;28;20045;-93
2021/04/26 09:27:59;;;;;;;2.65;1.08;;;;;;;;;;5021611;28;20044;-96
2021/04/26 09:30:48;;;;;;;1.45;0.98;;;;;;;;;;5026753;28;20037;-96
2021/04/26 09:33:35;;;;;;;1.73;1.00;;;;;;;;;;5024171;28;20408;-96
2021/04/26 09:36:23;;;;;;;3.03;1.00;;;;;;;;;;5043311;28;20101;-96
2021/04/26 09:39:48;;;;;;;5.07;1.50;;;;;;;;;;5050781;28;20021;-95
2021/04/26 09:42:13;;;;;;;1.77;1.10;;;;;;;;;;4997874;28;20050;-93
2021/04/26 09:44:39;;;;;;;2.05;1.20;;;;;;;;;;5030582;23;20026;-75
2021/04/26 09:47:04;;;;;;;1.83;0.88;;;;;;;;;;5033607;28;20053;-76
2021/04/26 09:49:29;;;;;;;3.17;1.45;;;;;;;;;;5049116;28;20049;-76
2021/04/26 09:52:14;;;;;;;5.13;3.00;;;;;;;;;;5032699;28;20048;-76
2021/04/26 09:54:41;;;;;;;7.30;1.20;;;;;;;;;;5032283;28;20130;-76
2021/04/26 09:57:30;;;;;;;3.25;1.10;;;;;;;;;;5033853;28;20033;-76
2021/04/26 10:00:00;;;;;;;5.72;1.30;;;;;;;;;;5015171;28;20136;-77
2021/04/26 10:02:30;;;;;;;3.10;1.00;;;;;;;;;;5017728;28;20045;-79
2021/04/26 10:04:56;;;;;;;2.42;1.08;;;;;;;;;;5036593;28;20095;-79
2021/04/26 10:07:22;;;;;;;3.00;1.10;;;;;;;;;;5034871;28;20483;-79
2021/04/26 10:09:50;;;;;;;2.45;1.17;;;;;;;;;;5036214;28;20048;-79
2021/04/26 10:12:32;;;;;;;6.35;1.20;;;;;;;;;;5035849;28;20046;-79
2021/04/26 10:15:15;;;;;;;3.08;1.30;;;;;;;;;;5017737;28;20091;-79
2021/04/26 10:17:47;;;;;;;4.55;1.27;;;;;;;;;;5035669;28;20409;-79
2021/04/26 10:20:34;;;;;;;3.65;1.48;;;;;;;;;;5037362;28;20509;-79
2021/04/26 10:23:00;;;;;;;3.55;1.33;;;;;;;;;;5017560;28;20044;-79
2021/04/26 10:25:42;;;;;;;2.90;1.30;;;;;;;;;;5036264;28;20445;-79
2021/04/26 10:28:30;;;;;;;12.75;6.63;;;;;;;;;;5023996;28;20033;-79
2021/04/26 10:31:07;;;;;;;2.58;1.30;;;;;;;;;;5016217;28;20042;-79
2021/04/26 10:33:58;;;;;;;1.83;1.10;;;;;;;;;;4998769;28;20038;-78
2021/04/26 10:36:43;;;;;;;6.57;1.40;;;;;;;;;;5030357;28;20045;-81
2021/04/26 10:39:15;;;;;;;2.10;1.10;;;;;;;;;;5034469;28;20076;-79
2021/04/26 10:42:00;;;;;;;3.78;1.20;;;;;;;;;;5036610;28;20034;-76
2021/04/26 10:44:38;;;;;;;5.72;1.23;;;;;;;;;;5034634;28;20052;-80
2021/04/26 10:47:45;;;;;;;4.72;1.23;;;;;;;;;;5032646;28;20059;-78
2021/04/26 10:50:19;;;;;;;8.50;1.20;;;;;;;;;;4992497;28;20515;-77
2021/04/26 10:52:55;;;;;;;3.90;1.35;;;;;;;;;;4995390;28;20101;-79
2021/04/26 10:55:23;;;;;;;2.20;1.10;;;;;;;;;;5016978;28;20084;-76
2021/04/26 10:57:55;;;;;;;3.92;1.30;;;;;;;;;;5013844;28;20455;-76
2021/04/26 11:00:21;;;;;;;4.13;1.20;;;;;;;;;;5030994;28;20383;-77
2021/04/26 11:02:48;;;;;;;3.80;1.30;;;;;;;;;;5033522;28;20053;-77
2021/04/26 11:05:20;;;;;;;1.75;1.10;;;;;;;;;;5033661;28;20426;-79
2021/04/26 11:07:53;;;;;;;5.88;1.23;;;;;;;;;;5035067;28;20470;-80
2021/04/26 11:10:35;;;;;;;5.40;1.80;;;;;;;;;;5033820;28;20029;-79
2021/04/26 11:13:33;;;;;;;3.30;1.30;;;;;;;;;;5029089;28;20045;-80
2021/04/26 11:16:07;;;;;;;4.05;1.50;;;;;;;;;;4984504;28;20077;-79
2021/04/26 11:18:38;;;;;;;2.33;1.27;;;;;;;;;;5025778;28;20056;-79
2021/04/26 11:21:05;;;;;;;1.73;1.10;;;;;;;;;;5032195;28;20129;-79
2021/04/26 11:23:40;;;;;;;2.08;1.30;;;;;;;;;;5031095;28;20042;-79
2021/04/26 11:26:17;;;;;;;2.20;1.20;;;;;;;;;;5031545;28;20042;-79
2021/04/26 11:29:01;;;;;;;1.98;1.17;;;;;;;;;;5035146;28;20046;-79
2021/04/26 11:31:42;;;;;;;1.38;1.20;;;;;;;;;;5033680;28;20044;-79
2021/04/26 11:34:07;;;;;;;2.95;1.60;;;;;;;;;;5032605;28;20049;-79
2021/04/26 11:36:35;;;;;;;3.42;1.40;;;;;;;;;;5034214;28;20025;-78
2021/04/26 11:39:04;;;;;;;4.45;1.60;;;;;;;;;;5034098;28;20037;-78
2021/04/26 11:41:43;;;;;;;2.97;1.45;;;;;;;;;;5025090;28;20056;-78
2021/04/26 11:44:09;;;;;;;3.25;1.80;;;;;;;;;;5053349;28;20132;-78
2021/04/26 11:46:34;;;;;;;3.85;1.40;;;;;;;;;;5054526;28;20042;-78
2021/04/26 11:49:21;;;;;;;2.00;1.38;;;;;;;;;;5055248;28;20037;-78
2021/04/26 11:51:50;;;;;;;4.25;1.15;;;;;;;;;;5056016;28;20134;-78
2021/04/26 11:54:24;;;;;;;2.03;1.40;;;;;;;;;;5056166;28;20124;-78
2021/04/26 11:57:03;;;;;;;10.07;1.40;;;;;;;;;;5055191;28;20068;-79
2021/04/26 11:59:29;;;;;;;3.58;1.33;;;;;;;;;;5055790;28;20048;-78
2021/04/26 12:01:55;;;;;;;5.75;1.50;;;;;;;;;;5055898;28;20061;-78
2021/04/26 12:04:37;;;;;;;5.15;1.50;;;;;;;;;;5056425;28;20044;-78
2021/04/26 12:07:04;;;;;;;1.70;0.98;;;;;;;;;;5052741;28;20041;-78
2021/04/26 12:09:31;;;;;;;5.47;1.20;;;;;;;;;;5053334;28;20056;-78
2021/04/26 12:12:02;;;;;;;2.65;1.58;;;;;;;;;;5053127;28;20051;-78
2021/04/26 12:14:28;;;;;;;1.23;1.13;;;;;;;;;;5054904;28;20060;-79
2021/04/26 12:17:13;;;;;;;2.20;1.17;;;;;;;;;;5054374;28;20041;-78
2021/04/26 12:19:39;;;;;;;1.80;1.02;;;;;;;;;;5054237;28;20095;-78
2021/04/26 12:22:04;;;;;;;4.32;1.45;;;;;;;;;;5051706;28;20037;-78
2021/04/26 12:24:30;;;;;;;1.65;1.40;;;;;;;;;;5053919;28;20033;-79
2021/04/26 12:26:55;;;;;;;2.95;1.40;;;;;;;;;;5056826;28;20025;-78
2021/04/26 12:29:28;;;;;;;3.15;1.20;;;;;;;;;;5056897;28;20033;-78
2021/04/26 12:32:15;;;;;;;7.68;1.92;;;;;;;;;;5056560;28;20088;-78
2021/04/26 12:34:55;;;;;;;;;;;;;;;;;;5055476;28;20048;-79
2021/04/26 12:37:34;;;;;;;6.13;1.17;;;;;;;;;;5056610;28;19935;-78
2021/04/26 12:40:20;;;;;;;4.45;1.50;;;;;;;;;;5056191;28;20096;-78
2021/04/26 12:42:47;;;;;;;3.07;1.63;;;;;;;;;;5055692;28;20072;-79
2021/04/26 12:45:24;;;;;;;1.85;1.40;;;;;;;;;;5056756;28;20033;-78
2021/04/26 12:47:59;;;;;;;5.28;1.60;;;;;;;;;;5056956;28;20563;-78
2021/04/26 12:50:30;;;;;;;2.47;1.38;;;;;;;;;;5057764;28;20044;-78
2021/04/26 12:53:13;;;;;;;3.40;1.35;;;;;;;;;;5053779;28;20039;-79
2021/04/26 12:55:42;;;;;;;8.57;1.63;;;;;;;;;;5056460;28;20040;-79
2021/04/26 12:58:17;;;;;;;3.97;1.50;;;;;;;;;;5056543;28;20033;-78
2021/04/26 13:00:47;;;;;;;6.40;1.45;;;;;;;;;;5057382;28;20041;-79
2021/04/26 13:03:29;;;;;;;3.05;1.23;;;;;;;;;;5056901;28;20097;-78
2021/04/26 13:05:57;;;;;;;3.03;1.25;;;;;;;;;;5056345;28;20109;-79
2021/04/26 13:08:24;;;;;;;3.78;1.50;;;;;;;;;;5057958;28;20037;-79
2021/04/26 13:10:51;;;;;;;13.77;1.70;;;;;;;;;;5054160;28;20017;-79
2021/04/26 13:13:17;;;;;;;4.25;1.38;;;;;;;;;;5057235;28;20014;-78
2021/04/26 13:15:43;;;;;;;2.35;1.55;;;;;;;;;;5057882;28;20094;-79
2021/04/26 13:18:17;;;;;;;5.32;1.60;;;;;;;;;;5057730;28;20064;-79
2021/04/26 13:20:46;;;;;;;13.02;1.90;;;;;;;;;;5057306;28;20037;-78
2021/04/26 13:23:21;;;;;;;8.75;1.67;;;;;;;;;;5056976;28;20035;-79
2021/04/26 13:25:48;;;;;;;9.43;1.88;;;;;;;;;;5057289;28;20041;-79
2021/04/26 13:28:43;;;;;;;4.22;1.50;;;;;;;;;;5056865;28;20041;-79
2021/04/26 13:31:08;;;;;;;2.78;2.00;;;;;;;;;;5048580;28;20056;-79
2021/04/26 13:33:34;;;;;;;6.43;1.90;;;;;;;;;;5057647;28;20041;-79
2021/04/26 13:35:59;;;;;;;2.97;1.88;;;;;;;;;;5048297;28;20033;-79
2021/04/26 13:38:26;;;;;;;5.43;1.80;;;;;;;;;;5050520;28;20037;-78
2021/04/26 13:40:53;;;;;;;5.40;1.58;;;;;;;;;;5050978;28;20056;-78
2021/04/26 13:43:21;;;;;;;2.03;1.40;;;;;;;;;;5036962;28;20024;-78
2021/04/26 13:45:47;;;;;;;2.78;1.30;;;;;;;;;;5051798;28;20084;-78
2021/04/26 13:48:13;;;;;;;2.10;1.40;;;;;;;;;;5047257;28;20037;-76
2021/04/26 13:50:39;;;;;;;3.08;1.52;;;;;;;;;;5033935;28;20356;-77
2021/04/26 13:53:05;;;;;;;1.98;1.40;;;;;;;;;;5032907;28;20044;-75
2021/04/26 13:55:31;;;;;;;4.30;1.58;;;;;;;;;;5033905;28;20037;-76
2021/04/26 13:57:57;;;;;;;5.88;1.73;;;;;;;;;;5032545;28;20490;-76
2021/04/26 14:00:22;;;;;;;2.33;1.58;;;;;;;;;;5032849;28;20132;-77
2021/04/26 14:02:48;;;;;;;3.85;1.70;;;;;;;;;;5032657;28;20168;-76
2021/04/26 14:05:14;;;;;;;3.20;1.75;;;;;;;;;;5033705;28;20044;-76
2021/04/26 14:07:39;;;;;;;4.20;1.50;;;;;;;;;;5032197;28;20579;-76
2021/04/26 14:10:06;;;;;;;7.15;1.40;;;;;;;;;;5031663;28;20150;-76
2021/04/26 14:12:31;;;;;;;3.55;2.55;;;;;;;;;;5033331;28;20502;-76
2021/04/26 14:14:57;;;;;;;3.85;1.38;;;;;;;;;;5033779;28;20037;-76
2021/04/26 14:17:23;;;;;;;2.88;1.83;;;;;;;;;;5033253;28;20034;-75
2021/04/26 14:19:48;;;;;;;3.92;1.50;;;;;;;;;;5033416;28;20037;-76
2021/04/26 14:22:14;;;;;;;5.00;1.60;;;;;;;;;;5032993;28;20046;-76
2021/04/26 14:24:40;;;;;;;3.38;1.48;;;;;;;;;;5032915;28;20088;-76
2021/04/26 14:27:06;;;;;;;2.70;1.50;;;;;;;;;;5033090;28;20471;-76
2021/04/26 14:29:32;;;;;;;6.25;2.33;;;;;;;;;;5032989;28;20040;-76
2021/04/26 14:31:57;;;;;;;3.55;1.88;;;;;;;;;;5032682;28;20060;-76
2021/04/26 14:34:23;;;;;;;3.95;1.40;;;;;;;;;;5032936;28;20037;-76
2021/04/26 14:36:48;;;;;;;3.72;1.63;;;;;;;;;;5031680;28;20120;-76
2021/04/26 14:39:14;;;;;;;2.30;1.38;;;;;;;;;;5032802;28;20041;-76
2021/04/26 14:41:39;;;;;;;2.90;1.48;;;;;;;;;;5031928;28;20033;-76
2021/04/26 14:44:05;;;;;;;2.15;1.30;;;;;;;;;;5032813;28;20029;-76
2021/04/26 14:46:31;;;;;;;7.03;1.42;;;;;;;;;;5032616;28;20095;-77
2021/04/26 14:48:56;;;;;;;2.70;1.45;;;;;;;;;;5031688;28;20033;-76
2021/04/26 14:51:22;;;;;;;2.75;1.48;;;;;;;;;;5015114;28;20041;-76
2021/04/26 14:53:47;;;;;;;4.05;1.48;;;;;;;;;;5031558;28;20091;-76
2021/04/26 14:56:12;;;;;;;2.85;1.20;;;;;;;;;;5032757;28;20494;-76
2021/04/26 14:58:38;;;;;;;1.52;1.20;;;;;;;;;;5032573;28;20108;-76
2021/04/26 15:01:03;;;;;;;7.13;1.80;;;;;;;;;;5032639;28;20037;-76
2021/04/26 15:03:29;;;;;;;3.38;1.55;;;;;;;;;;5032260;28;20041;-76